Accueil
METAR-TAF:

METAR-TAF

Aéroports :

Aéroport de Thessalonique-Makedonía

Thessalonique, Grèce

latitude: 40-31N, longitude: 022-58E, altitude: 8 m

Observation

Le bulletin a été fait il y a 43 minutes, à 15:20 UTC
Vent 20 kt de nord/nord-ouest
Température 31°C
Humidité 36%
Pression 1009 hPa
Visibilité 10 km ou plus
pas de nuages en-dessous de 1500 mètres et pas de cumulonimbus.

METAR: LGTS 141520Z 33020KT CAVOK 31/14 Q1009 NOSIG

Heure: 19:03 (16:03 UTC)

Prévision

Le bulletin a été fait il y a 5 heures et 3 minutes, à 11:00 UTC
Prévision valable du 14 à 12 UTC au 15 à 12 UTC
Vent 15 kt de nord/nord-ouest
Visibilité 10 km ou plus
Quelques nuages à une hauteur de 3000 ft
Probabilité 30% :
Temporairement
du 14 à 12 UTC au 14 à 18 UTC
Vent 15 kt de nord/nord-ouest avec des rafales jusqu'à 25 kt

TAF: LGTS 141100Z 1412/1512 34015KT 9999 FEW030 PROB30 TEMPO 1412/1418 34015G25KT

Observations et prévisions météorologiques de plus de 4000 aéroports (messages METAR et TAF).

Les stations disponibles sont représentées par des disques jaunes et rouges sur la carte.

Passer la souris dessus pour voir le nom de la station.

Cliquer dessus pour voir les observations et prévisions météorologiques.

Pour changer de carte: cliquez sur les boutons verts avec une croix noire pour zoomer, sur le bouton vert avec un tiret pour effectuer un zoom arrière, ou sur les flèches vertes pour les cartes adjacentes.


METAR-TAF: